Worthington, MN

6:33 AM CST on December 06, 2016 (GMT -0600)
Worthington Municipal | | Change Station
Active Advisory: Wind Advisory

Elev 1575 ft 43.66 °N, 95.58 °W | Updated 37 minutes ago

Light Snow
Light Snow
15 °F
Feels Like -5 °F
N
30
Wind Variable Wind from West
Gusts 37 mph

Today
High -- | Low -- °F
--% Chance of Precip.
Yesterday
High -- | Low -- °F
Precip. -- in
Pressure 29.85 in
Visibility 9.0 miles
Clouds Few 1700 ft
Windchill -5 °F
Dew Point 10 °F
Humidity 80%
Rainfall 0.00 in
Snow Depth Not available.
7:41 AM 4:45 PM
Waxing Crescent, 41% visible
METAR KOTG 061156Z AUTO 26026G32KT 9SM -SN FEW017 M09/M12 A2978 RMK AO2 PK WND 26033/1143 SNB30 SLP106 P0000 60000 T10941122 11033 21094 50001 FZRANO
Pressure 29.85 in
Visibility 9.0 miles
Clouds Few 1700 ft
Windchill -5 °F
Dew Point 10 °F
Humidity 80%
Rainfall 0.00 in
Snow Depth Not available.
7:41 AM 4:45 PM
Waxing Crescent, 41% visible
METAR KOTG 061156Z AUTO 26026G32KT 9SM -SN FEW017 M09/M12 A2978 RMK AO2 PK WND 26033/1143 SNB30 SLP106 P0000 60000 T10941122 11033 21094 50001 FZRANO

10-Day Weather Forecast

Almanac

Astronomy

Dec. 06, 2016 Rise Set
Actual Time
Civil Twilight
Nautical Twilight
Astronomical Twilight
Moon
Length of Visible Light
Length of Day
Tomorrow will be .
, % of the Moon is Illuminated

Today's Extremes

State Highs State Lows

Community

WunderPhotos

Upload Photos

1,955,936 photos uploaded!

WunderBlog® & News

Nearby

Air Quality

  Air Quality AQ Index Pollutant
Not available.

Snow Depth

Station Depth Elevation

Earthquake Activity

City Distance Mag. Time & Date
Minimum magnitude displayed is 2.5.

Coastal Water Temperatures

Place Temperature

Stations

Nearby Weather Stations

Station Location Temp. Windchill Dew Point Humidity Wind Precip. Elev Updated Type
                   

Watches & Warnings

Wind Advisory
Issued: 3:36 AM CST Dec. 6, 2016 – National Weather Service

... Wind Advisory in effect from 9 am this morning to 9 PM CST
this evening...

The National Weather Service in Sioux Falls has issued a Wind
Advisory... which is in effect from 9 am this morning to 9 PM CST
this evening.

* Timing... strong northwest winds will develop by mid morning and
remain strong through mid evening.

* Weather conditions... northwest winds will average 25 to 35
mph... with gusts as high as 45 mph.

Precautionary/preparedness actions...

A Wind Advisory is issued when sustained winds are forecast to be
31 to 39 mph or gusts will range between 46 and 57 mph. Winds of
these magnitudes may cause minor property damage without extra
precautions. Motorists in high profile vehicles should use
caution until the winds subside.